sensor_id;sensor_type;location;lat;lon;timestamp;pressure;altitude;pressure_sealevel;temperature;humidity
32486;BME280;18935;52.236;21.134;2022-10-16T00:00:41;76499.19;;;-143.48;74.20
32486;BME280;18935;52.236;21.134;2022-10-16T00:03:07;76499.19;;;-143.48;74.12
32486;BME280;18935;52.236;21.134;2022-10-16T00:05:38;76501.19;;;-143.48;74.23
32486;BME280;18935;52.236;21.134;2022-10-16T00:08:08;76509.19;;;-143.48;74.72
32486;BME280;18935;52.236;21.134;2022-10-16T00:10:34;76495.19;;;-143.48;73.84
32486;BME280;18935;52.236;21.134;2022-10-16T00:13:00;76487.22;;;-143.48;73.84
32486;BME280;18935;52.236;21.134;2022-10-16T00:15:25;76501.19;;;-143.48;74.12
32486;BME280;18935;52.236;21.134;2022-10-16T00:17:51;76501.19;;;-143.48;74.61
32486;BME280;18935;52.236;21.134;2022-10-16T00:20:16;76507.19;;;-143.48;74.70
32486;BME280;18935;52.236;21.134;2022-10-16T00:22:41;76509.19;;;-143.48;74.81
32486;BME280;18935;52.236;21.134;2022-10-16T00:25:07;76499.19;;;-143.48;74.76
32486;BME280;18935;52.236;21.134;2022-10-16T00:27:33;76507.19;;;-143.48;75.02
32486;BME280;18935;52.236;21.134;2022-10-16T00:29:58;76507.19;;;-143.48;75.43
32486;BME280;18935;52.236;21.134;2022-10-16T00:32:23;76505.19;;;-143.48;75.69
32486;BME280;18935;52.236;21.134;2022-10-16T00:34:49;76495.19;;;-143.48;75.70
32486;BME280;18935;52.236;21.134;2022-10-16T00:37:14;76509.19;;;-143.48;75.50
32486;BME280;18935;52.236;21.134;2022-10-16T00:39:39;76515.19;;;-143.48;75.86
32486;BME280;18935;52.236;21.134;2022-10-16T00:42:05;76519.16;;;-143.48;76.18
32486;BME280;18935;52.236;21.134;2022-10-16T00:44:44;76519.16;;;-143.48;76.84
32486;BME280;18935;52.236;21.134;2022-10-16T00:47:13;76517.16;;;-143.48;77.39
32486;BME280;18935;52.236;21.134;2022-10-16T00:49:40;76529.16;;;-143.48;78.19
32486;BME280;18935;52.236;21.134;2022-10-16T00:52:06;76539.16;;;-143.48;79.07
32486;BME280;18935;52.236;21.134;2022-10-16T00:54:32;76531.16;;;-143.48;79.17
32486;BME280;18935;52.236;21.134;2022-10-16T00:57:00;76551.13;;;-143.48;79.77
32486;BME280;18935;52.236;21.134;2022-10-16T00:59:34;76531.16;;;-143.48;79.76
32486;BME280;18935;52.236;21.134;2022-10-16T01:02:01;76541.16;;;-143.48;79.74
32486;BME280;18935;52.236;21.134;2022-10-16T01:04:29;76563.13;;;-143.48;81.33
32486;BME280;18935;52.236;21.134;2022-10-16T01:07:17;76559.13;;;-143.48;82.58
32486;BME280;18935;52.236;21.134;2022-10-16T01:10:26;76547.13;;;-143.48;81.94
32486;BME280;18935;52.236;21.134;2022-10-16T01:13:11;76591.09;;;-143.48;83.62
32486;BME280;18935;52.236;21.134;2022-10-16T01:15:58;76589.09;;;-143.48;83.36
32486;BME280;18935;52.236;21.134;2022-10-16T01:18:34;76589.09;;;-143.48;83.16
32486;BME280;18935;52.236;21.134;2022-10-16T01:21:24;76587.09;;;-143.48;82.48
32486;BME280;18935;52.236;21.134;2022-10-16T01:24:03;76583.09;;;-143.48;81.99
32486;BME280;18935;52.236;21.134;2022-10-16T01:35:02;76597.06;;;-143.48;82.62
32486;BME280;18935;52.236;21.134;2022-10-16T01:37:53;76591.09;;;-143.48;82.45
32486;BME280;18935;52.236;21.134;2022-10-16T01:40:20;76601.06;;;-143.48;83.22
32486;BME280;18935;52.236;21.134;2022-10-16T01:42:59;76603.06;;;-143.48;83.10
32486;BME280;18935;52.236;21.134;2022-10-16T01:45:27;76603.06;;;-143.48;83.40
32486;BME280;18935;52.236;21.134;2022-10-16T01:47:53;76607.06;;;-143.48;83.22
32486;BME280;18935;52.236;21.134;2022-10-16T01:50:20;76611.06;;;-143.48;83.65
32486;BME280;18935;52.236;21.134;2022-10-16T01:52:48;76613.06;;;-143.48;84.02
32486;BME280;18935;52.236;21.134;2022-10-16T01:55:21;76611.06;;;-143.48;83.91
32486;BME280;18935;52.236;21.134;2022-10-16T01:57:49;76611.06;;;-143.48;83.28
32486;BME280;18935;52.236;21.134;2022-10-16T02:00:19;76613.06;;;-143.48;83.41
32486;BME280;18935;52.236;21.134;2022-10-16T02:02:47;76611.06;;;-143.48;83.78
32486;BME280;18935;52.236;21.134;2022-10-16T02:05:29;76607.06;;;-143.48;83.50
32486;BME280;18935;52.236;21.134;2022-10-16T02:07:56;76611.06;;;-143.48;83.93
32486;BME280;18935;52.236;21.134;2022-10-16T02:10:22;76607.06;;;-143.48;83.98
32486;BME280;18935;52.236;21.134;2022-10-16T02:12:58;76611.06;;;-143.48;83.62
32486;BME280;18935;52.236;21.134;2022-10-16T02:15:25;76619.06;;;-143.48;83.95
32486;BME280;18935;52.236;21.134;2022-10-16T02:17:50;76617.06;;;-143.48;84.14
32486;BME280;18935;52.236;21.134;2022-10-16T02:20:15;76611.06;;;-143.48;84.08
32486;BME280;18935;52.236;21.134;2022-10-16T02:22:45;76617.06;;;-143.48;84.24
32486;BME280;18935;52.236;21.134;2022-10-16T02:25:19;76623.06;;;-143.48;84.57
32486;BME280;18935;52.236;21.134;2022-10-16T02:27:49;76601.06;;;-143.48;84.41
32486;BME280;18935;52.236;21.134;2022-10-16T02:30:34;76579.09;;;-143.48;83.43
32486;BME280;18935;52.236;21.134;2022-10-16T02:33:03;76591.09;;;-143.48;83.24
32486;BME280;18935;52.236;21.134;2022-10-16T02:35:30;76609.06;;;-143.48;84.44
32486;BME280;18935;52.236;21.134;2022-10-16T02:37:56;76621.06;;;-143.48;84.83
32486;BME280;18935;52.236;21.134;2022-10-16T02:40:23;76623.06;;;-143.48;84.77
32486;BME280;18935;52.236;21.134;2022-10-16T02:42:51;76631.03;;;-143.48;85.60
32486;BME280;18935;52.236;21.134;2022-10-16T02:45:17;76639.03;;;-143.48;85.71
32486;BME280;18935;52.236;21.134;2022-10-16T02:47:43;76647.03;;;-143.48;85.85
32486;BME280;18935;52.236;21.134;2022-10-16T02:50:08;76643.03;;;-143.48;85.99
32486;BME280;18935;52.236;21.134;2022-10-16T02:52:33;76641.03;;;-143.48;85.71
32486;BME280;18935;52.236;21.134;2022-10-16T02:54:59;76645.03;;;-143.48;86.00
32486;BME280;18935;52.236;21.134;2022-10-16T02:57:24;76643.03;;;-143.48;85.95
32486;BME280;18935;52.236;21.134;2022-10-16T02:59:49;76639.03;;;-143.48;85.65
32486;BME280;18935;52.236;21.134;2022-10-16T03:02:14;76649.00;;;-143.48;85.76
32486;BME280;18935;52.236;21.134;2022-10-16T03:04:40;76647.03;;;-143.48;85.58
32486;BME280;18935;52.236;21.134;2022-10-16T03:07:05;76663.00;;;-143.48;86.09
32486;BME280;18935;52.236;21.134;2022-10-16T03:09:31;76651.00;;;-143.48;85.84
32486;BME280;18935;52.236;21.134;2022-10-16T03:11:56;76655.00;;;-143.48;86.07
32486;BME280;18935;52.236;21.134;2022-10-16T03:14:21;76655.00;;;-143.48;85.83
32486;BME280;18935;52.236;21.134;2022-10-16T03:16:46;76659.00;;;-143.48;85.89
32486;BME280;18935;52.236;21.134;2022-10-16T03:19:12;76657.00;;;-143.48;85.79
32486;BME280;18935;52.236;21.134;2022-10-16T03:21:37;76667.00;;;-143.48;85.66
32486;BME280;18935;52.236;21.134;2022-10-16T03:24:02;76667.00;;;-143.48;85.50
32486;BME280;18935;52.236;21.134;2022-10-16T03:26:28;76671.00;;;-143.48;85.59
32486;BME280;18935;52.236;21.134;2022-10-16T03:28:53;76663.00;;;-143.48;85.38
32486;BME280;18935;52.236;21.134;2022-10-16T03:31:18;76675.00;;;-143.48;85.26
32486;BME280;18935;52.236;21.134;2022-10-16T03:33:43;76678.97;;;-143.48;85.14
32486;BME280;18935;52.236;21.134;2022-10-16T03:36:09;76682.97;;;-143.48;85.18
32486;BME280;18935;52.236;21.134;2022-10-16T03:38:34;76675.00;;;-143.48;85.36
32486;BME280;18935;52.236;21.134;2022-10-16T03:40:59;76673.00;;;-143.48;85.18
32486;BME280;18935;52.236;21.134;2022-10-16T03:43:25;76678.97;;;-143.48;85.43
32486;BME280;18935;52.236;21.134;2022-10-16T03:45:50;76686.97;;;-143.48;85.69
32486;BME280;18935;52.236;21.134;2022-10-16T03:48:17;76690.97;;;-143.48;85.70
32486;BME280;18935;52.236;21.134;2022-10-16T03:50:42;76686.97;;;-143.48;85.86
32486;BME280;18935;52.236;21.134;2022-10-16T03:53:07;76686.97;;;-143.48;85.84
32486;BME280;18935;52.236;21.134;2022-10-16T03:55:33;76686.97;;;-143.48;85.64
32486;BME280;18935;52.236;21.134;2022-10-16T03:57:58;76694.97;;;-143.48;85.67
32486;BME280;18935;52.236;21.134;2022-10-16T04:00:23;76702.94;;;-143.48;85.81
32486;BME280;18935;52.236;21.134;2022-10-16T04:02:49;76700.97;;;-143.48;85.81
32486;BME280;18935;52.236;21.134;2022-10-16T04:05:14;76690.97;;;-143.48;85.45
32486;BME280;18935;52.236;21.134;2022-10-16T04:07:39;76678.97;;;-143.48;84.42
32486;BME280;18935;52.236;21.134;2022-10-16T04:10:05;76690.97;;;-143.48;84.65
32486;BME280;18935;52.236;21.134;2022-10-16T04:12:30;76694.97;;;-143.48;84.86
32486;BME280;18935;52.236;21.134;2022-10-16T04:14:56;76690.97;;;-143.48;85.05
32486;BME280;18935;52.236;21.134;2022-10-16T04:17:21;76690.97;;;-143.48;84.90
32486;BME280;18935;52.236;21.134;2022-10-16T04:19:46;76688.97;;;-143.48;84.53
32486;BME280;18935;52.236;21.134;2022-10-16T04:22:11;76692.97;;;-143.48;84.50
32486;BME280;18935;52.236;21.134;2022-10-16T04:24:37;76702.94;;;-143.48;84.51
32486;BME280;18935;52.236;21.134;2022-10-16T04:27:02;76710.94;;;-143.48;84.73
32486;BME280;18935;52.236;21.134;2022-10-16T04:29:28;76722.94;;;-143.48;85.03
32486;BME280;18935;52.236;21.134;2022-10-16T04:31:53;76730.91;;;-143.48;85.16
32486;BME280;18935;52.236;21.134;2022-10-16T04:34:18;76732.91;;;-143.48;85.34
32486;BME280;18935;52.236;21.134;2022-10-16T04:36:44;76742.91;;;-143.48;85.38
32486;BME280;18935;52.236;21.134;2022-10-16T04:39:11;76742.91;;;-143.48;85.37
32486;BME280;18935;52.236;21.134;2022-10-16T04:41:36;76756.91;;;-143.48;85.61
32486;BME280;18935;52.236;21.134;2022-10-16T04:44:02;76762.88;;;-143.48;86.02
32486;BME280;18935;52.236;21.134;2022-10-16T04:46:27;76760.88;;;-143.48;85.88
32486;BME280;18935;52.236;21.134;2022-10-16T04:48:53;76774.88;;;-143.48;86.45
32486;BME280;18935;52.236;21.134;2022-10-16T04:51:18;76778.88;;;-143.48;86.57
32486;BME280;18935;52.236;21.134;2022-10-16T04:53:44;76780.88;;;-143.48;86.80
32486;BME280;18935;52.236;21.134;2022-10-16T04:56:09;76784.88;;;-143.48;86.84
32486;BME280;18935;52.236;21.134;2022-10-16T04:58:34;76790.84;;;-143.48;86.82
32486;BME280;18935;52.236;21.134;2022-10-16T05:01:00;76780.88;;;-143.48;86.59
32486;BME280;18935;52.236;21.134;2022-10-16T05:03:25;76796.84;;;-143.48;87.16
32486;BME280;18935;52.236;21.134;2022-10-16T05:05:50;76786.84;;;-143.48;87.02
32486;BME280;18935;52.236;21.134;2022-10-16T05:08:16;76784.88;;;-143.48;86.71
32486;BME280;18935;52.236;21.134;2022-10-16T05:10:42;76782.88;;;-143.48;86.84
32486;BME280;18935;52.236;21.134;2022-10-16T05:13:08;76790.84;;;-143.48;86.95
32486;BME280;18935;52.236;21.134;2022-10-16T05:15:34;76782.88;;;-143.48;86.47
32486;BME280;18935;52.236;21.134;2022-10-16T05:17:59;76776.88;;;-143.48;86.52
32486;BME280;18935;52.236;21.134;2022-10-16T05:20:24;76784.88;;;-143.48;86.60
32486;BME280;18935;52.236;21.134;2022-10-16T05:22:49;76780.88;;;-143.48;86.23
32486;BME280;18935;52.236;21.134;2022-10-16T05:25:15;76782.88;;;-143.48;86.21
32486;BME280;18935;52.236;21.134;2022-10-16T05:27:40;76784.88;;;-143.48;86.38
32486;BME280;18935;52.236;21.134;2022-10-16T05:30:06;76790.84;;;-143.48;86.68
32486;BME280;18935;52.236;21.134;2022-10-16T05:32:32;76782.88;;;-143.48;86.38
32486;BME280;18935;52.236;21.134;2022-10-16T05:34:57;76786.84;;;-143.48;86.12
32486;BME280;18935;52.236;21.134;2022-10-16T05:37:25;76786.84;;;-143.48;86.33
32486;BME280;18935;52.236;21.134;2022-10-16T05:39:50;76786.84;;;-143.48;86.56
32486;BME280;18935;52.236;21.134;2022-10-16T05:42:15;76786.84;;;-143.48;86.40
32486;BME280;18935;52.236;21.134;2022-10-16T05:44:41;76786.84;;;-143.48;86.16
32486;BME280;18935;52.236;21.134;2022-10-16T05:47:06;76784.88;;;-143.48;86.04
32486;BME280;18935;52.236;21.134;2022-10-16T05:49:31;76768.88;;;-143.48;85.64
32486;BME280;18935;52.236;21.134;2022-10-16T05:51:57;76768.88;;;-143.48;85.38
32486;BME280;18935;52.236;21.134;2022-10-16T05:54:22;76780.88;;;-143.48;85.64
32486;BME280;18935;52.236;21.134;2022-10-16T05:56:47;76780.88;;;-143.48;85.88
32486;BME280;18935;52.236;21.134;2022-10-16T05:59:13;76782.88;;;-143.48;85.86
32486;BME280;18935;52.236;21.134;2022-10-16T06:01:38;76788.84;;;-143.48;85.62
32486;BME280;18935;52.236;21.134;2022-10-16T06:04:03;76784.88;;;-143.48;85.38
32486;BME280;18935;52.236;21.134;2022-10-16T06:06:29;76800.84;;;-143.48;85.53
32486;BME280;18935;52.236;21.134;2022-10-16T06:08:56;76804.84;;;-143.48;85.52
32486;BME280;18935;52.236;21.134;2022-10-16T06:11:24;76804.84;;;-143.48;85.39
32486;BME280;18935;52.236;21.134;2022-10-16T06:13:51;76804.84;;;-143.48;85.35
32486;BME280;18935;52.236;21.134;2022-10-16T06:16:17;76814.81;;;-143.48;85.49
32486;BME280;18935;52.236;21.134;2022-10-16T06:18:43;76802.84;;;-143.48;85.28
32486;BME280;18935;52.236;21.134;2022-10-16T06:21:14;76802.84;;;-143.48;85.31
32486;BME280;18935;52.236;21.134;2022-10-16T06:23:41;76786.84;;;-143.48;84.65
32486;BME280;18935;52.236;21.134;2022-10-16T06:26:07;76786.84;;;-143.48;84.41
32486;BME280;18935;52.236;21.134;2022-10-16T06:28:33;76786.84;;;-143.48;84.06
32486;BME280;18935;52.236;21.134;2022-10-16T06:30:59;76790.84;;;-143.48;84.32
32486;BME280;18935;52.236;21.134;2022-10-16T06:33:25;76772.88;;;-143.48;83.95
32486;BME280;18935;52.236;21.134;2022-10-16T06:35:50;76770.88;;;-143.48;83.49
32486;BME280;18935;52.236;21.134;2022-10-16T06:38:15;76764.88;;;-143.48;82.88
32486;BME280;18935;52.236;21.134;2022-10-16T06:40:41;76758.88;;;-143.48;82.48
32486;BME280;18935;52.236;21.134;2022-10-16T06:43:06;76758.88;;;-143.48;82.74
32486;BME280;18935;52.236;21.134;2022-10-16T06:45:31;76750.91;;;-143.48;82.03
32486;BME280;18935;52.236;21.134;2022-10-16T06:47:56;76728.94;;;-143.48;80.69
32486;BME280;18935;52.236;21.134;2022-10-16T06:50:22;76722.94;;;-143.48;80.18
32486;BME280;18935;52.236;21.134;2022-10-16T06:52:47;76726.94;;;-143.48;80.10
32486;BME280;18935;52.236;21.134;2022-10-16T06:55:12;76724.94;;;-143.48;79.77
32486;BME280;18935;52.236;21.134;2022-10-16T06:57:38;76726.94;;;-143.48;80.31
32486;BME280;18935;52.236;21.134;2022-10-16T07:00:04;76714.94;;;-143.48;79.40
32486;BME280;18935;52.236;21.134;2022-10-16T07:02:29;76690.97;;;-143.48;78.49
32486;BME280;18935;52.236;21.134;2022-10-16T07:04:54;76682.97;;;-143.48;78.17
32486;BME280;18935;52.236;21.134;2022-10-16T07:07:21;76663.00;;;-143.48;77.45
32486;BME280;18935;52.236;21.134;2022-10-16T07:09:49;76639.03;;;-143.48;76.41
32486;BME280;18935;52.236;21.134;2022-10-16T07:12:14;76627.03;;;-143.48;75.75
32486;BME280;18935;52.236;21.134;2022-10-16T07:14:40;76611.06;;;-143.48;75.39
32486;BME280;18935;52.236;21.134;2022-10-16T07:17:05;76617.06;;;-143.48;74.77
32486;BME280;18935;52.236;21.134;2022-10-16T07:19:30;76619.06;;;-143.48;74.99
32486;BME280;18935;52.236;21.134;2022-10-16T07:21:56;76631.03;;;-143.48;75.09
32486;BME280;18935;52.236;21.134;2022-10-16T07:24:22;76639.03;;;-143.48;74.79
32486;BME280;18935;52.236;21.134;2022-10-16T07:26:47;76647.03;;;-143.48;75.01
32486;BME280;18935;52.236;21.134;2022-10-16T07:29:17;76655.00;;;-143.48;75.30
32486;BME280;18935;52.236;21.134;2022-10-16T07:31:43;76663.00;;;-143.48;75.93
32486;BME280;18935;52.236;21.134;2022-10-16T07:34:10;76645.03;;;-143.48;75.83
32486;BME280;18935;52.236;21.134;2022-10-16T07:36:36;76631.03;;;-143.48;75.66
32486;BME280;18935;52.236;21.134;2022-10-16T07:39:02;76607.06;;;-143.48;74.68
32486;BME280;18935;52.236;21.134;2022-10-16T07:41:27;76583.09;;;-143.48;74.21
32486;BME280;18935;52.236;21.134;2022-10-16T07:43:53;76559.13;;;-143.48;73.87
32486;BME280;18935;52.236;21.134;2022-10-16T07:46:21;76535.16;;;-143.48;72.57
32486;BME280;18935;52.236;21.134;2022-10-16T07:48:46;76521.16;;;-143.48;72.09
32486;BME280;18935;52.236;21.134;2022-10-16T07:51:18;76517.16;;;-143.48;72.10
32486;BME280;18935;52.236;21.134;2022-10-16T07:53:44;76495.19;;;-143.48;71.41
32486;BME280;18935;52.236;21.134;2022-10-16T07:56:10;76495.19;;;-143.48;71.81
32486;BME280;18935;52.236;21.134;2022-10-16T07:58:35;76467.22;;;-143.48;71.15
32486;BME280;18935;52.236;21.134;2022-10-16T08:01:10;76429.28;;;-143.48;69.49
32486;BME280;18935;52.236;21.134;2022-10-16T08:03:36;76409.31;;;-143.48;69.13
32486;BME280;18935;52.236;21.134;2022-10-16T08:06:05;76387.34;;;-143.48;68.79
32486;BME280;18935;52.236;21.134;2022-10-16T08:08:30;76391.31;;;-143.48;67.43
32486;BME280;18935;52.236;21.134;2022-10-16T08:10:56;76367.34;;;-143.48;67.12
32486;BME280;18935;52.236;21.134;2022-10-16T08:13:21;76339.38;;;-143.48;67.26
32486;BME280;18935;52.236;21.134;2022-10-16T08:15:47;76313.44;;;-143.48;66.39
32486;BME280;18935;52.236;21.134;2022-10-16T08:18:13;76315.41;;;-143.48;65.54
32486;BME280;18935;52.236;21.134;2022-10-16T08:20:39;76303.44;;;-143.48;65.05
32486;BME280;18935;52.236;21.134;2022-10-16T08:23:05;76299.44;;;-143.48;65.04
32486;BME280;18935;52.236;21.134;2022-10-16T08:25:31;76261.50;;;-143.48;64.54
32486;BME280;18935;52.236;21.134;2022-10-16T08:27:57;76269.47;;;-143.48;64.27
32486;BME280;18935;52.236;21.134;2022-10-16T08:30:23;76285.47;;;-143.48;63.86
32486;BME280;18935;52.236;21.134;2022-10-16T08:32:50;76271.47;;;-143.48;64.06
32486;BME280;18935;52.236;21.134;2022-10-16T08:35:15;76235.53;;;-143.48;63.84
32486;BME280;18935;52.236;21.134;2022-10-16T08:37:44;76201.56;;;-143.48;61.89
32486;BME280;18935;52.236;21.134;2022-10-16T08:40:22;76161.63;;;-143.48;60.80
32486;BME280;18935;52.236;21.134;2022-10-16T08:46:20;76151.63;;;-143.48;60.06
32486;BME280;18935;52.236;21.134;2022-10-16T08:48:48;76127.66;;;-143.48;60.37
32486;BME280;18935;52.236;21.134;2022-10-16T08:51:21;76143.63;;;-143.48;60.76
32486;BME280;18935;52.236;21.134;2022-10-16T08:54:03;76159.63;;;-143.48;60.50
32486;BME280;18935;52.236;21.134;2022-10-16T08:56:29;76191.56;;;-143.48;61.34
32486;BME280;18935;52.236;21.134;2022-10-16T08:58:55;76183.59;;;-143.48;60.77
32486;BME280;18935;52.236;21.134;2022-10-16T09:01:23;76149.63;;;-143.48;59.91
32486;BME280;18935;52.236;21.134;2022-10-16T09:10:00;76047.75;;;-143.48;56.81
32486;BME280;18935;52.236;21.134;2022-10-16T09:12:37;76059.75;;;-143.48;57.23
32486;BME280;18935;52.236;21.134;2022-10-16T09:18:20;75995.84;;;-143.48;55.29
32486;BME280;18935;52.236;21.134;2022-10-16T09:21:10;76023.81;;;-143.48;56.49
32486;BME280;18935;52.236;21.134;2022-10-16T09:23:38;76019.81;;;-143.48;56.28
32486;BME280;18935;52.236;21.134;2022-10-16T09:26:04;76011.81;;;-143.48;56.37
32486;BME280;18935;52.236;21.134;2022-10-16T09:28:30;75999.84;;;-143.48;56.59
32486;BME280;18935;52.236;21.134;2022-10-16T09:30:55;75989.84;;;-143.48;56.64
32486;BME280;18935;52.236;21.134;2022-10-16T09:33:24;76015.81;;;-143.48;56.51
32486;BME280;18935;52.236;21.134;2022-10-16T09:35:51;76043.78;;;-143.48;56.85
32486;BME280;18935;52.236;21.134;2022-10-16T09:38:23;76041.78;;;-143.48;57.05
32486;BME280;18935;52.236;21.134;2022-10-16T09:40:49;76029.78;;;-143.48;57.12
32486;BME280;18935;52.236;21.134;2022-10-16T09:43:54;76011.81;;;-143.48;56.67
32486;BME280;18935;52.236;21.134;2022-10-16T09:46:35;75997.84;;;-143.48;56.35
32486;BME280;18935;52.236;21.134;2022-10-16T09:49:05;75981.84;;;-143.48;56.75
32486;BME280;18935;52.236;21.134;2022-10-16T09:51:43;75969.88;;;-143.48;56.95
32486;BME280;18935;52.236;21.134;2022-10-16T09:56:35;75991.84;;;-143.48;56.71
32486;BME280;18935;52.236;21.134;2022-10-16T09:59:21;76009.81;;;-143.48;56.85
32486;BME280;18935;52.236;21.134;2022-10-16T10:01:51;75973.88;;;-143.48;56.60
32486;BME280;18935;52.236;21.134;2022-10-16T10:04:18;75903.97;;;-143.48;55.48
32486;BME280;18935;52.236;21.134;2022-10-16T10:06:52;75860.03;;;-143.48;53.49
32486;BME280;18935;52.236;21.134;2022-10-16T10:09:23;75766.16;;;-143.48;52.16
32486;BME280;18935;52.236;21.134;2022-10-16T10:14:20;75776.13;;;-143.48;51.88
32486;BME280;18935;52.236;21.134;2022-10-16T10:16:49;75848.03;;;-143.48;52.76
32486;BME280;18935;52.236;21.134;2022-10-16T10:19:20;75836.06;;;-143.48;53.24
32486;BME280;18935;52.236;21.134;2022-10-16T10:21:46;75848.03;;;-143.48;53.43
32486;BME280;18935;52.236;21.134;2022-10-16T10:24:16;75844.03;;;-143.48;53.89
32486;BME280;18935;52.236;21.134;2022-10-16T10:26:53;75840.03;;;-143.48;53.46
32486;BME280;18935;52.236;21.134;2022-10-16T10:29:38;75876.00;;;-143.48;53.84
32486;BME280;18935;52.236;21.134;2022-10-16T10:32:21;75828.06;;;-143.48;53.65
32486;BME280;18935;52.236;21.134;2022-10-16T10:34:51;75806.09;;;-143.48;53.65
32486;BME280;18935;52.236;21.134;2022-10-16T10:45:26;75804.09;;;-143.48;52.84
32486;BME280;18935;52.236;21.134;2022-10-16T10:50:43;75850.03;;;-143.48;53.77
32486;BME280;18935;52.236;21.134;2022-10-16T10:56:47;75895.97;;;-143.48;55.20
32486;BME280;18935;52.236;21.134;2022-10-16T10:59:36;75887.97;;;-143.48;56.09
32486;BME280;18935;52.236;21.134;2022-10-16T11:02:21;75838.06;;;-143.48;55.36
32486;BME280;18935;52.236;21.134;2022-10-16T11:04:58;75840.03;;;-143.48;54.38
32486;BME280;18935;52.236;21.134;2022-10-16T11:07:36;75790.13;;;-143.48;53.18
32486;BME280;18935;52.236;21.134;2022-10-16T11:10:11;75724.22;;;-143.48;52.31
32486;BME280;18935;52.236;21.134;2022-10-16T11:12:44;75770.16;;;-143.48;52.09
32486;BME280;18935;52.236;21.134;2022-10-16T11:15:25;75778.13;;;-143.48;52.96
32486;BME280;18935;52.236;21.134;2022-10-16T11:18:03;75776.13;;;-143.48;52.80
32486;BME280;18935;52.236;21.134;2022-10-16T11:21:00;75798.09;;;-143.48;52.74
32486;BME280;18935;52.236;21.134;2022-10-16T11:23:31;75788.13;;;-143.48;53.35
32486;BME280;18935;52.236;21.134;2022-10-16T11:26:02;75786.13;;;-143.48;52.87
32486;BME280;18935;52.236;21.134;2022-10-16T11:28:38;75768.16;;;-143.48;52.86
32486;BME280;18935;52.236;21.134;2022-10-16T11:31:16;75760.16;;;-143.48;53.18
32486;BME280;18935;52.236;21.134;2022-10-16T11:33:51;75750.16;;;-143.48;52.71
32486;BME280;18935;52.236;21.134;2022-10-16T11:37:09;75732.19;;;-143.48;52.17
32486;BME280;18935;52.236;21.134;2022-10-16T11:39:19;75754.16;;;-143.48;51.80
32486;BME280;18935;52.236;21.134;2022-10-16T11:42:10;75792.13;;;-143.48;52.29
32486;BME280;18935;52.236;21.134;2022-10-16T11:47:47;75824.06;;;-143.48;53.19
32486;BME280;18935;52.236;21.134;2022-10-16T11:50:39;75790.13;;;-143.48;52.54
32486;BME280;18935;52.236;21.134;2022-10-16T11:53:32;75744.19;;;-143.48;52.06
32486;BME280;18935;52.236;21.134;2022-10-16T11:56:01;75712.22;;;-143.48;50.82
32486;BME280;18935;52.236;21.134;2022-10-16T11:58:56;75668.28;;;-143.48;50.04
32486;BME280;18935;52.236;21.134;2022-10-16T12:01:42;75636.34;;;-143.48;49.69
32486;BME280;18935;52.236;21.134;2022-10-16T12:04:34;75656.31;;;-143.48;49.62
32486;BME280;18935;52.236;21.134;2022-10-16T12:07:23;75704.25;;;-143.48;50.37
32486;BME280;18935;52.236;21.134;2022-10-16T12:09:49;75746.19;;;-143.48;51.03
32486;BME280;18935;52.236;21.134;2022-10-16T12:15:26;75766.16;;;-143.48;52.05
32486;BME280;18935;52.236;21.134;2022-10-16T12:17:52;75752.16;;;-143.48;52.81
32486;BME280;18935;52.236;21.134;2022-10-16T12:20:33;75752.16;;;-143.48;52.47
32486;BME280;18935;52.236;21.134;2022-10-16T12:23:03;75812.09;;;-143.48;52.99
32486;BME280;18935;52.236;21.134;2022-10-16T12:27:58;75796.09;;;-143.48;53.41
32486;BME280;18935;52.236;21.134;2022-10-16T12:30:26;75792.13;;;-143.48;53.49
32486;BME280;18935;52.236;21.134;2022-10-16T12:33:03;75820.06;;;-143.48;52.95
32486;BME280;18935;52.236;21.134;2022-10-16T12:35:32;75836.06;;;-143.48;53.32
32486;BME280;18935;52.236;21.134;2022-10-16T12:38:15;75832.06;;;-143.48;53.96
32486;BME280;18935;52.236;21.134;2022-10-16T12:40:43;75842.03;;;-143.48;53.72
32486;BME280;18935;52.236;21.134;2022-10-16T12:43:39;75848.03;;;-143.48;54.08
32486;BME280;18935;52.236;21.134;2022-10-16T12:48:33;75882.00;;;-143.48;55.07
32486;BME280;18935;52.236;21.134;2022-10-16T12:51:54;75891.97;;;-143.48;55.04
32486;BME280;18935;52.236;21.134;2022-10-16T13:05:32;75921.94;;;-143.48;55.71
32486;BME280;18935;52.236;21.134;2022-10-16T13:16:48;75963.88;;;-143.48;57.38
32486;BME280;18935;52.236;21.134;2022-10-16T13:19:24;75953.91;;;-143.48;57.32
32486;BME280;18935;52.236;21.134;2022-10-16T13:27:41;75979.84;;;-143.48;57.76
32486;BME280;18935;52.236;21.134;2022-10-16T13:30:21;76003.81;;;-143.48;58.58
32486;BME280;18935;52.236;21.134;2022-10-16T13:32:48;76009.81;;;-143.48;59.25
32486;BME280;18935;52.236;21.134;2022-10-16T13:35:24;76013.81;;;-143.48;59.08
32486;BME280;18935;52.236;21.134;2022-10-16T13:37:50;76027.78;;;-143.48;59.42
32486;BME280;18935;52.236;21.134;2022-10-16T13:40:23;76033.78;;;-143.48;59.83
32486;BME280;18935;52.236;21.134;2022-10-16T13:42:50;76047.75;;;-143.48;60.27
32486;BME280;18935;52.236;21.134;2022-10-16T13:45:24;76043.78;;;-143.48;60.16
32486;BME280;18935;52.236;21.134;2022-10-16T13:48:04;76045.78;;;-143.48;60.89
32486;BME280;18935;52.236;21.134;2022-10-16T13:50:30;76055.75;;;-143.48;61.20
32486;BME280;18935;52.236;21.134;2022-10-16T13:53:13;76063.75;;;-143.48;60.93
32486;BME280;18935;52.236;21.134;2022-10-16T13:55:38;76061.75;;;-143.48;61.23
32486;BME280;18935;52.236;21.134;2022-10-16T13:58:10;76071.72;;;-143.48;61.35
32486;BME280;18935;52.236;21.134;2022-10-16T14:00:36;76061.75;;;-143.48;61.12